Time;durP1;ratioP1;P1;durP2;ratioP2;P2;SDS_P1;SDS_P2;PMS_P1;PMS_P2;Temp;Humidity;BMP_temperature;BMP_pressure;BME280_temperature;BME280_humidity;BME280_pressure;Samples;Min_cycle;Max_cycle;Signal;HPM_P1;HPM_P2
2021/12/27 00:04:29;;;;;;;6.50;4.70;;;;;;;20.54;nan;99984.00;20495110;28;98884;-59
2021/12/27 00:14:30;;;;;;;5.82;4.05;;;;;;;20.54;nan;99994.53;20498239;28;101821;-59
2021/12/27 00:24:32;;;;;;;7.28;4.53;;;;;;;20.50;nan;99981.78;20497293;28;102132;-59
2021/12/27 00:34:36;;;;;;;6.30;4.37;;;;;;;20.46;nan;99983.81;20485319;28;98719;-59
2021/12/27 00:44:38;;;;;;;6.22;4.43;;;;;;;20.42;nan;99993.75;20488068;28;101434;-59
2021/12/27 00:54:38;;;;;;;7.32;4.60;;;;;;;20.39;nan;99985.28;20487323;28;101035;-58
2021/12/27 01:04:41;;;;;;;6.65;4.55;;;;;;;20.36;nan;99970.56;20485783;27;99342;-59
2021/12/27 01:15:06;;;;;;;5.77;4.13;;;;;;;20.34;nan;99975.13;20482978;28;101909;-58
2021/12/27 01:25:06;;;;;;;;;;;;;;;20.36;nan;99986.34;20490658;28;103315;-59
2021/12/27 01:35:07;;;;;;;7.40;4.68;;;;;;;20.27;nan;99982.66;20491018;28;98774;-59
2021/12/27 01:45:09;;;;;;;6.43;4.68;;;;;;;20.22;nan;99969.03;20491029;28;98882;-60
2021/12/27 01:55:11;;;;;;;6.23;4.47;;;;;;;20.20;nan;99964.88;20490969;28;101078;-59
2021/12/27 02:05:13;;;;;;;6.45;4.57;;;;;;;20.17;nan;99962.50;20490524;28;104080;-58
2021/12/27 02:15:14;;;;;;;7.15;5.03;;;;;;;20.15;nan;99975.75;20487077;28;102694;-59
2021/12/27 02:25:15;;;;;;;6.78;4.75;;;;;;;20.14;nan;99974.91;20481441;28;101071;-59
2021/12/27 02:35:22;;;;;;;7.35;5.25;;;;;;;20.12;nan;99968.13;20484891;27;103286;-59
2021/12/27 02:45:34;;;;;;;7.20;5.20;;;;;;;20.11;nan;99955.94;20482860;28;100135;-58
2021/12/27 02:55:36;;;;;;;8.40;4.90;;;;;;;20.09;nan;99966.56;20483865;28;99263;-59
2021/12/27 03:05:37;;;;;;;6.25;4.57;;;;;;;20.11;nan;99963.81;20487774;28;98077;-59
2021/12/27 03:15:38;;;;;;;7.07;4.80;;;;;;;20.09;nan;99947.31;20491903;28;101304;-58
2021/12/27 03:25:39;;;;;;;6.80;5.03;;;;;;;20.06;nan;99942.31;20488719;28;98356;-58
2021/12/27 03:35:48;;;;;;;6.35;4.47;;;;;;;20.07;nan;99928.22;20493389;28;101935;-62
2021/12/27 03:45:49;;;;;;;8.98;4.80;;;;;;;20.08;nan;99943.00;20505615;28;98429;-59
2021/12/27 03:55:50;;;;;;;6.38;4.75;;;;;;;20.07;nan;99936.13;20500928;28;99483;-59
2021/12/27 04:05:51;;;;;;;6.57;4.18;;;;;;;20.09;nan;99936.81;20497369;28;101394;-60
2021/12/27 04:15:52;;;;;;;6.40;4.57;;;;;;;20.08;nan;99943.00;20502770;27;101841;-59
2021/12/27 04:25:53;;;;;;;6.57;4.40;;;;;;;20.09;nan;99939.44;20501540;27;98954;-60
2021/12/27 04:35:53;;;;;;;6.43;4.75;;;;;;;20.09;nan;99932.41;20493882;28;102133;-59
2021/12/27 04:45:54;;;;;;;6.72;4.70;;;;;;;20.10;nan;99926.19;20414068;28;101348;-59
2021/12/27 04:55:57;;;;;;;6.60;4.32;;;;;;;20.10;nan;99925.34;20406989;28;99139;-58
2021/12/27 05:05:57;;;;;;;7.60;5.00;;;;;;;20.09;nan;99937.66;20407952;28;99364;-59
2021/12/27 05:16:02;;;;;;;6.70;4.30;;;;;;;20.19;nan;99944.78;20421376;28;102494;-59
2021/12/27 05:26:03;;;;;;;5.53;4.30;;;;;;;20.35;nan;99942.59;20432171;28;99986;-59
2021/12/27 05:36:04;;;;;;;8.00;4.60;;;;;;;20.46;nan;99936.47;20451843;28;98813;-59
2021/12/27 05:46:05;;;;;;;5.97;4.10;;;;;;;20.58;nan;99934.63;20420634;28;102262;-59
2021/12/27 05:56:06;;;;;;;9.07;4.90;;;;;;;20.64;nan;99926.22;20406196;28;101968;-59
2021/12/27 06:06:07;;;;;;;8.93;4.75;;;;;;;20.68;nan;99924.19;20417021;28;102448;-58
2021/12/27 06:16:08;;;;;;;9.32;5.53;;;;;;;20.73;nan;99920.25;20402751;28;98992;-58
2021/12/27 06:26:09;;;;;;;7.93;5.10;;;;;;;20.79;nan;99909.22;20410432;28;98387;-59
2021/12/27 06:36:10;;;;;;;6.15;4.63;;;;;;;20.85;nan;99914.91;20436918;28;98208;-59
2021/12/27 06:46:10;;;;;;;8.23;4.60;;;;;;;20.88;nan;99915.50;20402590;28;105465;-60
2021/12/27 06:56:11;;;;;;;11.57;4.68;;;;;;;20.93;nan;99908.06;20479755;28;99996;-58
2021/12/27 07:06:13;;;;;;;11.35;4.55;;;;;;;21.01;nan;99914.50;20395263;28;98966;-59
2021/12/27 07:16:15;;;;;;;11.27;4.13;;;;;;;21.09;nan;99907.59;20424584;28;97132;-58
2021/12/27 07:26:16;;;;;;;8.67;4.37;;;;;;;21.16;nan;99909.72;20420981;28;97993;-58
2021/12/27 07:36:16;;;;;;;6.88;4.70;;;;;;;21.22;nan;99909.19;20420194;28;98247;-58
2021/12/27 07:46:17;;;;;;;6.47;4.10;;;;;;;21.33;nan;99914.38;20421273;28;101693;-58
2021/12/27 07:56:19;;;;;;;7.90;4.55;;;;;;;21.42;nan;99910.09;20423946;28;98159;-58
2021/12/27 08:06:19;;;;;;;8.45;4.75;;;;;;;21.45;nan;99915.13;20422358;28;103017;-57
2021/12/27 08:16:24;;;;;;;7.82;4.90;;;;;;;21.50;nan;99910.28;20422506;28;99942;-58
2021/12/27 08:26:24;;;;;;;12.90;5.95;;;;;;;21.54;nan;99892.41;20415276;28;100401;-58
2021/12/27 08:36:25;;;;;;;8.85;5.05;;;;;;;21.56;nan;99899.25;20440323;28;102329;-58
2021/12/27 08:46:26;;;;;;;11.83;6.53;;;;;;;21.57;nan;99908.81;20425745;28;97504;-58
2021/12/27 08:56:28;;;;;;;17.30;6.40;;;;;;;21.61;nan;99921.75;20427577;28;98216;-58
2021/12/27 09:06:28;;;;;;;8.23;5.30;;;;;;;21.61;nan;99914.66;20406969;28;98319;-59
2021/12/27 09:16:30;;;;;;;8.68;5.07;;;;;;;21.65;nan;99912.59;20357484;28;1199173;-59
2021/12/27 09:26:32;;;;;;;7.85;5.13;;;;;;;21.68;nan;99897.34;20435383;28;99026;-58
2021/12/27 09:36:33;;;;;;;16.03;5.33;;;;;;;21.81;nan;99891.81;20410948;28;99582;-57
2021/12/27 09:46:35;;;;;;;10.37;5.63;;;;;;;21.84;nan;99882.84;20398138;28;100307;-59
2021/12/27 09:56:36;;;;;;;22.40;6.25;;;;;;;21.88;nan;99871.88;20410061;28;100070;-58
2021/12/27 10:06:37;;;;;;;8.23;5.07;;;;;;;21.96;nan;99862.44;20404010;28;99726;-56
2021/12/27 10:16:41;;;;;;;9.55;5.47;;;;;;;22.01;nan;99857.63;20405944;28;98814;-59
2021/12/27 10:26:45;;;;;;;10.68;5.72;;;;;;;22.03;nan;99861.78;20405967;28;101785;-59
2021/12/27 10:37:12;;;;;;;9.93;5.63;;;;;;;22.03;nan;99853.88;20400293;28;102193;-59
2021/12/27 10:47:37;;;;;;;9.43;5.80;;;;;;;22.07;nan;99855.25;20403354;28;97573;-60
2021/12/27 10:57:38;;;;;;;7.30;5.22;;;;;;;22.12;nan;99849.56;20401660;28;98650;-59
2021/12/27 11:07:39;;;;;;;8.02;5.53;;;;;;;22.22;nan;99844.28;20403038;28;98875;-59
2021/12/27 11:17:40;;;;;;;11.18;6.57;;;;;;;22.29;nan;99832.22;20400708;27;99455;-59
2021/12/27 11:27:42;;;;;;;9.10;5.53;;;;;;;22.28;nan;99827.91;20404417;28;102257;-57
2021/12/27 11:37:45;;;;;;;;;;;;;;;22.31;nan;99816.25;20403145;28;99337;-58
2021/12/27 11:48:05;;;;;;;9.37;5.43;;;;;;;22.40;nan;99815.44;20402746;28;98242;-58
2021/12/27 11:58:06;;;;;;;10.38;5.13;;;;;;;22.42;nan;99807.38;20409046;28;98536;-58
2021/12/27 12:08:13;;;;;;;6.97;4.57;;;;;;;22.41;nan;99788.09;20436738;28;103158;-57
2021/12/27 12:18:17;;;;;;;6.15;4.60;;;;;;;22.43;nan;99772.94;20427310;28;101334;-59
2021/12/27 12:28:17;;;;;;;5.80;4.40;;;;;;;22.47;nan;99765.59;20415668;28;99510;-58
2021/12/27 12:38:38;;;;;;;5.90;4.60;;;;;;;22.52;nan;99760.69;20443137;28;99985;-59
2021/12/27 12:48:38;;;;;;;5.80;4.50;;;;;;;22.51;nan;99751.16;20398582;28;98927;-58
2021/12/27 12:58:40;;;;;;;8.25;4.72;;;;;;;22.57;nan;99757.63;20468456;28;101540;-58
2021/12/27 13:08:50;;;;;;;5.72;4.13;;;;;;;22.60;nan;99768.75;20394430;28;99618;-59
2021/12/27 13:18:51;;;;;;;13.15;4.93;;;;;;;22.55;nan;99753.34;20392185;28;99932;-58
2021/12/27 13:28:51;;;;;;;8.77;3.90;;;;;;;22.53;nan;99747.38;20402926;28;98332;-59
2021/12/27 13:39:19;;;;;;;7.10;3.65;;;;;;;22.58;nan;99751.41;20395909;28;102168;-58
2021/12/27 13:49:20;;;;;;;6.43;3.83;;;;;;;22.58;nan;99749.56;20400110;28;102950;-59
2021/12/27 13:59:23;;;;;;;6.70;3.75;;;;;;;22.60;nan;99757.38;20387941;28;99770;-58
2021/12/27 14:09:27;;;;;;;6.43;3.45;;;;;;;22.59;nan;99753.06;20385767;28;102458;-58
2021/12/27 14:19:28;;;;;;;4.78;3.45;;;;;;;22.61;nan;99762.50;20386943;28;99717;-58
2021/12/27 14:29:29;;;;;;;6.38;3.53;;;;;;;22.58;nan;99761.94;20383359;28;101944;-58
2021/12/27 14:39:31;;;;;;;7.78;3.63;;;;;;;22.55;nan;99763.06;20398413;28;103159;-58
2021/12/27 14:49:33;;;;;;;5.35;3.45;;;;;;;22.53;nan;99751.81;20404838;28;100317;-58
2021/12/27 14:59:33;;;;;;;6.80;3.50;;;;;;;22.51;nan;99749.31;20398218;28;102556;-58
2021/12/27 15:09:35;;;;;;;7.88;3.35;;;;;;;22.51;nan;99751.16;20403080;28;101200;-59
2021/12/27 15:19:36;;;;;;;4.10;3.20;;;;;;;22.49;nan;99730.16;20399672;28;102671;-58
2021/12/27 15:29:37;;;;;;;6.35;3.78;;;;;;;22.50;nan;99746.84;20406187;28;98424;-59
2021/12/27 15:39:38;;;;;;;7.65;3.85;;;;;;;22.46;nan;99761.28;20420352;28;99339;-59
2021/12/27 15:49:40;;;;;;;6.32;3.83;;;;;;;22.43;nan;99758.94;20409482;28;97925;-59
2021/12/27 15:59:41;;;;;;;6.05;3.55;;;;;;;22.38;nan;99749.63;20416220;28;99648;-58
2021/12/27 16:09:43;;;;;;;6.22;3.88;;;;;;;22.34;nan;99761.41;20403814;28;101848;-59
2021/12/27 16:19:43;;;;;;;4.70;3.53;;;;;;;22.29;nan;99763.66;20410911;28;100114;-58
2021/12/27 16:29:45;;;;;;;5.30;3.60;;;;;;;22.24;nan;99755.34;20420657;28;107215;-59
2021/12/27 16:39:48;;;;;;;8.60;3.65;;;;;;;22.20;nan;99752.16;20409606;28;99641;-59
2021/12/27 16:49:49;;;;;;;11.57;4.13;;;;;;;22.22;nan;99754.63;20409591;28;101944;-58
2021/12/27 16:59:51;;;;;;;6.97;3.55;;;;;;;22.22;nan;99762.53;20409696;28;99588;-58
2021/12/27 17:09:54;;;;;;;6.40;3.80;;;;;;;22.21;nan;99761.69;20409899;28;103957;-59
2021/12/27 17:19:54;;;;;;;;;;;;;;;22.27;nan;99770.03;20408619;28;101816;-60
2021/12/27 17:29:56;;;;;;;5.78;3.80;;;;;;;22.27;nan;99780.59;20398415;28;101561;-59
2021/12/27 17:39:57;;;;;;;13.30;4.07;;;;;;;22.33;nan;99774.75;20396080;28;103525;-60
2021/12/27 17:49:57;;;;;;;8.40;4.07;;;;;;;22.34;nan;99793.06;20399958;28;98043;-60
2021/12/27 17:59:58;;;;;;;12.25;4.82;;;;;;;22.32;nan;99797.63;20393367;28;99662;-60
2021/12/27 18:09:58;;;;;;;10.30;4.68;;;;;;;22.37;nan;99808.63;20399264;28;102873;-59
2021/12/27 18:19:59;;;;;;;26.27;14.75;;;;;;;22.48;nan;99820.00;20405794;28;98598;-59
2021/12/27 18:30:01;;;;;;;34.95;17.58;;;;;;;22.52;nan;99819.59;20399297;28;101492;-59
2021/12/27 18:40:05;;;;;;;;;;;;;;;22.59;nan;99827.75;20400579;28;101846;-59
2021/12/27 18:50:09;;;;;;;32.78;18.48;;;;;;;22.54;nan;99817.66;20401605;28;99077;-58
2021/12/27 19:00:12;;;;;;;26.65;16.27;;;;;;;22.54;nan;99814.16;20409869;28;99939;-60
2021/12/27 19:10:13;;;;;;;29.33;15.88;;;;;;;22.55;nan;99815.84;20402052;28;101603;-59
2021/12/27 19:20:16;;;;;;;26.00;15.20;;;;;;;22.47;nan;99803.38;20383553;28;101719;-59
2021/12/27 19:30:19;;;;;;;27.88;15.73;;;;;;;22.44;nan;99808.09;20407696;28;102833;-60
2021/12/27 19:40:20;;;;;;;26.58;14.40;;;;;;;22.37;nan;99808.63;20445826;28;102483;-60
2021/12/27 19:50:22;;;;;;;29.83;14.38;;;;;;;22.29;nan;99805.84;20397609;28;98925;-60
2021/12/27 20:00:26;;;;;;;22.85;13.38;;;;;;;22.17;nan;99822.78;20418387;28;102091;-59
2021/12/27 20:10:27;;;;;;;28.40;13.02;;;;;;;22.00;nan;99805.84;20401586;28;99288;-58
2021/12/27 20:20:29;;;;;;;23.33;12.20;;;;;;;21.89;nan;99807.63;20414905;28;98325;-59
2021/12/27 20:30:32;;;;;;;;;;;;;;;21.88;nan;99807.78;20422849;28;102903;-59
2021/12/27 20:40:37;;;;;;;20.50;11.57;;;;;;;;;;20438720;28;97792;-60
2021/12/27 20:50:39;;;;;;;19.05;10.82;;;;;;;21.65;nan;99794.03;20414655;28;97898;-59
2021/12/27 21:00:43;;;;;;;16.57;9.97;;;;;;;21.56;nan;99796.50;20413360;28;102578;-59
2021/12/27 21:10:47;;;;;;;18.20;10.23;;;;;;;21.52;nan;99810.03;20428708;28;98315;-59
2021/12/27 21:20:49;;;;;;;16.25;9.80;;;;;;;21.49;nan;99810.34;20411403;28;101965;-58
2021/12/27 21:30:50;;;;;;;17.75;9.75;;;;;;;21.45;nan;99815.03;20408273;28;102264;-59
2021/12/27 21:40:51;;;;;;;15.13;9.00;;;;;;;21.38;nan;99806.81;20413732;28;101575;-58
2021/12/27 21:50:53;;;;;;;16.70;9.00;;;;;;;21.37;nan;99820.13;20416192;28;101955;-59
2021/12/27 22:00:53;;;;;;;14.60;8.45;;;;;;;21.31;nan;99829.38;20415588;28;102471;-58
2021/12/27 22:10:57;;;;;;;14.00;8.45;;;;;;;21.28;nan;99824.41;20465012;28;98465;-59
2021/12/27 22:20:59;;;;;;;13.70;8.25;;;;;;;21.22;nan;99836.28;20409200;28;98603;-58
2021/12/27 22:30:59;;;;;;;13.68;8.88;;;;;;;21.21;nan;99820.63;20409160;28;98409;-59
2021/12/27 22:41:01;;;;;;;13.18;8.27;;;;;;;21.14;nan;99836.13;20431415;28;97662;-58
2021/12/27 22:51:04;;;;;;;12.50;7.72;;;;;;;21.09;nan;99839.16;20423023;28;98172;-59
2021/12/27 23:01:09;;;;;;;13.90;8.20;;;;;;;21.06;nan;99839.41;20426967;28;99696;-59
2021/12/27 23:11:10;;;;;;;11.85;8.10;;;;;;;21.00;nan;99831.22;20437590;28;99697;-58
2021/12/27 23:21:11;;;;;;;13.32;7.60;;;;;;;20.92;nan;99851.13;20422066;28;102859;-58
2021/12/27 23:31:12;;;;;;;9.68;7.10;;;;;;;20.87;nan;99849.84;20408580;28;98883;-58
2021/12/27 23:41:14;;;;;;;12.27;7.60;;;;;;;20.85;nan;99843.88;20420760;28;101598;-59
2021/12/27 23:51:14;;;;;;;11.55;7.55;;;;;;;20.78;nan;99847.00;20396697;28;101536;-58
